Ana Sayfa
METAR-TAF:

METAR-TAF

Havaalanları :

Harrisburg, Pensilvanya, Amerika Birleşik Devletleri

Enlem: 40-13-02N, Boylam: 076-51-05W, yükseklik: 106 m

Güncel hava durumu gözlemi

Rapor saat 22:56 UTC de 52 dakika önce yapıldı.
Rüzgar güney/güneydoğudan 5 kt
Sıcaklık 1°C
Nem 47%
Basınç 1037 hPa
Görüş mesafesi: 16.1 km
Açık gökyüzü

METAR: KCXY 122256Z 16005KT 10SM CLR 01/M09 A3062 RMK AO2 SLP375 T00111089

Saat: 18:48 (23:48 UTC)


TAF: eksik

4.000'den fazla havaalanı için hava durumu gözlemleri ve tahminleri (METAR ve TAF raporları).

Kullanılabilir istasyonlar harita üzerinde sarı ve kırmızı noktalarla gösterilir.

İstasyonun adını görmek için fareyi noktanın üzerinde gezdirin.

Sonrasında hava gözlem ve tahminlerini görmek için tıklayın.

Haritayı değiştirmek için: yaklaştırmak için siyah artı işaretli yeşil düğmeye ve uzaklaştırmak için de eksi işaretli düğmeye hızla tıklayın; bitişik haritalar için yeşil okları kullanın.


METAR-TAF: